TimeMST,TemperatureF,Dew PointF,Humidity,Sea Level PressureIn,VisibilityMPH,Wind Direction,Wind SpeedMPH,Gust SpeedMPH,PrecipitationIn,Events,Conditions,WindDirDegrees,DateUTC
12:53 AM,35.1,19.0,52,30.26,10.0,Calm,Calm,-,N/A,,Clear,0,2012-11-04 06:53:00
1:53 AM,32.0,18.0,56,30.26,10.0,Calm,Calm,-,N/A,,Clear,0,2012-11-04 07:53:00
1:53 AM,30.9,18.0,59,30.26,10.0,SE,3.5,-,N/A,,Clear,130,2012-11-04 08:53:00
2:53 AM,28.9,17.1,61,30.26,10.0,Calm,Calm,-,N/A,,Clear,0,2012-11-04 09:53:00
3:53 AM,30.0,18.0,61,30.27,10.0,Calm,Calm,-,N/A,,Clear,0,2012-11-04 10:53:00
4:53 AM,28.0,18.0,66,30.31,10.0,NE,3.5,-,N/A,,Clear,50,2012-11-04 11:53:00
5:53 AM,28.0,17.1,63,30.34,10.0,SW,5.8,-,N/A,,Clear,220,2012-11-04 12:53:00
6:53 AM,26.1,17.1,69,30.38,10.0,SE,3.5,-,N/A,,Clear,140,2012-11-04 13:53:00
7:53 AM,30.0,19.9,66,30.40,10.0,Calm,Calm,-,N/A,,Clear,0,2012-11-04 14:53:00
8:53 AM,37.9,21.0,51,30.39,10.0,Calm,Calm,-,N/A,,Clear,0,2012-11-04 15:53:00
9:53 AM,44.1,21.0,40,30.38,10.0,ENE,4.6,-,N/A,,Clear,70,2012-11-04 16:53:00
10:53 AM,48.9,21.0,33,30.36,10.0,Calm,Calm,-,N/A,,Clear,0,2012-11-04 17:53:00
11:53 AM,53.1,21.0,29,30.33,10.0,Calm,Calm,-,N/A,,Clear,0,2012-11-04 18:53:00
12:53 PM,57.0,19.9,24,30.29,10.0,NW,3.5,-,N/A,,Clear,320,2012-11-04 19:53:00
1:53 PM,60.1,21.9,23,30.26,10.0,NW,4.6,-,N/A,,Clear,320,2012-11-04 20:53:00
2:53 PM,62.1,21.0,21,30.25,10.0,Calm,Calm,-,N/A,,Clear,0,2012-11-04 21:53:00
3:53 PM,62.1,21.9,21,30.25,10.0,WSW,3.5,-,N/A,,Clear,250,2012-11-04 22:53:00
4:53 PM,57.9,21.9,25,30.28,10.0,WNW,6.9,-,N/A,,Clear,290,2012-11-04 23:53:00
5:53 PM,54.0,23.0,30,30.31,10.0,West,6.9,-,N/A,,Clear,260,2012-11-05 00:53:00
6:53 PM,52.0,23.0,32,30.35,10.0,WSW,3.5,-,N/A,,Clear,240,2012-11-05 01:53:00
7:53 PM,46.0,23.0,40,30.37,10.0,SSW,5.8,-,N/A,,Clear,200,2012-11-05 02:53:00
8:53 PM,41.0,23.0,49,30.38,10.0,Calm,Calm,-,N/A,,Clear,0,2012-11-05 03:53:00
9:53 PM,39.0,23.0,53,30.37,10.0,Calm,Calm,-,N/A,,Clear,0,2012-11-05 04:53:00
10:53 PM,36.0,23.0,59,30.38,10.0,Calm,Calm,-,N/A,,Clear,0,2012-11-05 05:53:00